Time;durP1;ratioP1;P1;durP2;ratioP2;P2;SDS_P1;SDS_P2;PMS_P1;PMS_P2;Temp;Humidity;BMP_temperature;BMP_pressure;BME280_temperature;BME280_humidity;BME280_pressure;Samples;Min_cycle;Max_cycle;Signal;HPM_P1;HPM_P2
2023/07/13 00:01:49;;;;;;;5.13;2.80;;;20.80;99.90;;;;;;5077491;28;20541;-60
2023/07/13 00:04:16;;;;;;;2.93;2.30;;;21.10;99.90;;;;;;5078350;28;20434;-60
2023/07/13 00:06:44;;;;;;;3.00;2.50;;;20.90;99.90;;;;;;5077352;28;20456;-60
2023/07/13 00:09:11;;;;;;;3.50;2.57;;;20.90;99.90;;;;;;5079888;28;20540;-59
2023/07/13 00:11:39;;;;;;;2.80;2.60;;;20.70;99.90;;;;;;5080156;28;20636;-61
2023/07/13 00:14:06;;;;;;;4.20;2.87;;;20.90;99.90;;;;;;5085029;28;20453;-60
2023/07/13 00:16:34;;;;;;;3.20;2.50;;;20.90;99.90;;;;;;5082615;28;20521;-60
2023/07/13 00:19:01;;;;;;;3.30;2.60;;;20.60;99.90;;;;;;5084743;28;20449;-59
2023/07/13 00:21:28;;;;;;;3.23;2.37;;;21.50;99.90;;;;;;5082890;28;20478;-59
2023/07/13 00:23:55;;;;;;;4.77;2.20;;;21.20;99.90;;;;;;5083465;28;20988;-59
2023/07/13 00:26:22;;;;;;;4.17;1.80;;;21.00;99.90;;;;;;5083298;28;20930;-61
2023/07/13 00:28:50;;;;;;;4.00;2.57;;;20.80;99.90;;;;;;5081946;28;20982;-58
2023/07/13 00:31:17;;;;;;;3.00;2.40;;;20.60;99.90;;;;;;5082945;28;20446;-61
2023/07/13 00:33:45;;;;;;;6.90;2.40;;;20.90;99.90;;;;;;5082096;28;20497;-59
2023/07/13 00:36:16;;;;;;;5.37;2.33;;;20.70;99.90;;;;;;5080866;28;20850;-61
2023/07/13 00:38:44;;;;;;;3.00;2.70;;;20.70;99.90;;;;;;5080651;28;20461;-61
2023/07/13 00:41:11;;;;;;;4.27;2.27;;;20.70;99.90;;;;;;5080495;28;20481;-60
2023/07/13 00:43:39;;;;;;;5.60;3.10;;;;;;;;;;5080666;28;20473;-60
2023/07/13 00:46:26;;;;;;;5.07;2.63;;;20.60;99.90;;;;;;5080358;28;20500;-60
2023/07/13 00:48:55;;;;;;;3.20;2.60;;;20.70;99.90;;;;;;5080767;28;20438;-62
2023/07/13 00:51:28;;;;;;;4.00;2.00;;;20.70;99.90;;;;;;5081897;28;20980;-61
2023/07/13 00:53:57;;;;;;;4.83;2.40;;;20.40;99.90;;;;;;5084825;28;20441;-60
2023/07/13 00:56:24;;;;;;;6.97;2.80;;;20.50;99.90;;;;;;5084670;28;20545;-60
2023/07/13 00:58:52;;;;;;;2.60;2.40;;;;;;;;;;5083842;28;20971;-57
2023/07/13 01:01:22;;;;;;;2.80;2.07;;;20.50;99.90;;;;;;5084448;28;20894;-59
2023/07/13 01:03:50;;;;;;;3.23;2.63;;;20.40;99.90;;;;;;5084102;28;20497;-60
2023/07/13 01:06:18;;;;;;;4.80;2.60;;;20.10;99.90;;;;;;5083842;28;20470;-61
2023/07/13 01:08:45;;;;;;;3.03;2.43;;;20.10;99.90;;;;;;5083634;28;20535;-61
2023/07/13 01:11:11;;;;;;;4.57;2.87;;;20.30;99.90;;;;;;5083758;28;20507;-60
2023/07/13 01:13:41;;;;;;;3.07;2.47;;;20.30;99.90;;;;;;5084098;28;20545;-61
2023/07/13 01:16:26;;;;;;;3.33;3.03;;;20.90;99.90;;;;;;5083903;28;20452;-61
2023/07/13 01:18:58;;;;;;;3.60;3.00;;;20.10;99.90;;;;;;5083567;28;20433;-60
2023/07/13 01:21:27;;;;;;;5.10;2.67;;;20.10;99.90;;;;;;5082911;28;20427;-61
2023/07/13 01:23:54;;;;;;;3.40;2.40;;;20.40;99.90;;;;;;5083655;28;20581;-61
2023/07/13 01:26:21;;;;;;;3.73;2.17;;;20.20;99.90;;;;;;5083302;28;20460;-60
2023/07/13 01:28:50;;;;;;;3.00;2.70;;;20.30;99.90;;;;;;5083538;28;20549;-60
2023/07/13 01:31:17;;;;;;;2.60;2.20;;;20.30;99.90;;;;;;5083701;28;20527;-60
2023/07/13 01:33:44;;;;;;;3.20;2.80;;;20.10;99.90;;;;;;5083388;28;20469;-61
2023/07/13 01:36:12;;;;;;;2.17;1.97;;;20.20;99.90;;;;;;5083308;28;20450;-62
2023/07/13 01:38:40;;;;;;;6.53;2.50;;;20.30;99.90;;;;;;5083762;28;20525;-59
2023/07/13 01:41:09;;;;;;;4.30;2.50;;;20.20;99.90;;;;;;5083273;28;20470;-60
2023/07/13 01:43:36;;;;;;;4.60;2.53;;;20.80;99.90;;;;;;5083303;28;20871;-59
2023/07/13 01:46:03;;;;;;;3.80;2.43;;;20.10;99.90;;;;;;5083715;28;20477;-59
2023/07/13 01:48:29;;;;;;;3.53;2.93;;;20.20;99.90;;;;;;5083688;28;20427;-62
2023/07/13 01:50:56;;;;;;;4.20;2.33;;;20.40;99.90;;;;;;5083720;28;20457;-62
2023/07/13 01:53:23;;;;;;;4.17;3.00;;;20.20;99.90;;;;;;5083440;28;20465;-61
2023/07/13 01:55:51;;;;;;;3.63;2.80;;;20.10;99.90;;;;;;5083546;28;20953;-61
2023/07/13 01:58:18;;;;;;;4.60;2.50;;;20.10;99.90;;;;;;5083665;28;20486;-60
2023/07/13 02:00:45;;;;;;;5.10;2.53;;;20.00;99.90;;;;;;5083029;28;20481;-62
2023/07/13 02:03:17;;;;;;;4.30;2.23;;;;;;;;;;5082464;28;20478;-60
2023/07/13 02:05:44;;;;;;;3.47;2.70;;;;;;;;;;5083256;28;20470;-61
2023/07/13 02:08:14;;;;;;;4.67;3.30;;;20.10;99.90;;;;;;5082964;28;20442;-60
2023/07/13 02:10:41;;;;;;;6.10;3.20;;;;;;;;;;5082833;28;20498;-60
2023/07/13 02:13:09;;;;;;;4.10;3.00;;;20.00;99.90;;;;;;5083016;28;20510;-60
2023/07/13 02:15:39;;;;;;;3.30;2.83;;;20.00;99.90;;;;;;5083101;28;20466;-58
2023/07/13 02:18:08;;;;;;;6.37;2.03;;;19.90;99.90;;;;;;5082458;28;20492;-61
2023/07/13 02:20:35;;;;;;;4.80;2.80;;;19.70;99.90;;;;;;5083021;28;20529;-59
2023/07/13 02:23:02;;;;;;;3.37;3.00;;;19.70;99.90;;;;;;5083448;28;20466;-61
2023/07/13 02:25:29;;;;;;;3.10;2.80;;;;;;;;;;5082726;28;20534;-61
2023/07/13 02:27:56;;;;;;;3.70;3.03;;;19.50;99.90;;;;;;5082911;28;20473;-60
2023/07/13 02:30:25;;;;;;;3.23;2.70;;;20.00;99.90;;;;;;5083915;28;20454;-61
2023/07/13 02:32:52;;;;;;;3.50;3.20;;;19.50;99.90;;;;;;5082729;28;20481;-60
2023/07/13 02:35:19;;;;;;;3.60;2.60;;;;;;;;;;5083286;28;20457;-61
2023/07/13 02:37:46;;;;;;;3.87;3.57;;;19.60;99.90;;;;;;5082527;28;20541;-60
2023/07/13 02:40:13;;;;;;;4.60;2.70;;;19.20;99.90;;;;;;5082673;28;20967;-58
2023/07/13 02:42:40;;;;;;;3.73;3.27;;;19.40;99.90;;;;;;5082685;28;20435;-60
2023/07/13 02:45:08;;;;;;;3.13;2.83;;;19.40;99.90;;;;;;5083089;28;20506;-60
2023/07/13 02:47:37;;;;;;;3.87;2.83;;;19.40;99.90;;;;;;5083147;28;20468;-60
2023/07/13 02:50:04;;;;;;;4.23;3.10;;;19.70;99.90;;;;;;5082997;28;20504;-60
2023/07/13 02:52:31;;;;;;;5.10;2.73;;;;;;;;;;5082861;28;20446;-60
2023/07/13 02:54:58;;;;;;;3.60;3.00;;;;;;;;;;5083629;28;20481;-61
2023/07/13 02:57:26;;;;;;;4.27;3.10;;;;;;;;;;5083121;28;20477;-60
2023/07/13 02:59:54;;;;;;;5.77;2.87;;;19.50;99.90;;;;;;5083587;28;20442;-60
2023/07/13 03:02:21;;;;;;;3.00;2.70;;;19.50;99.90;;;;;;5082466;28;20454;-59
2023/07/13 03:04:49;;;;;;;3.27;2.97;;;19.40;99.90;;;;;;5082741;28;20857;-60
2023/07/13 03:07:16;;;;;;;3.87;2.37;;;19.60;99.90;;;;;;5083396;28;20541;-60
2023/07/13 03:09:43;;;;;;;3.80;2.77;;;19.90;99.90;;;;;;5082619;28;20986;-60
2023/07/13 03:12:12;;;;;;;3.47;3.17;;;;;;;;;;5082554;28;20500;-60
2023/07/13 03:14:39;;;;;;;3.90;3.60;;;19.50;99.90;;;;;;5080876;28;20477;-60
2023/07/13 03:17:06;;;;;;;4.70;2.70;;;;;;;;;;5081970;28;20504;-60
2023/07/13 03:19:33;;;;;;;5.40;2.90;;;19.30;99.90;;;;;;5081910;28;20506;-60
2023/07/13 03:22:01;;;;;;;3.07;2.80;;;19.20;99.90;;;;;;5081211;28;20506;-59
2023/07/13 03:24:28;;;;;;;2.53;2.33;;;19.20;99.90;;;;;;5081241;28;20486;-60
2023/07/13 03:26:55;;;;;;;3.50;3.20;;;19.30;99.90;;;;;;5082242;28;20476;-59
2023/07/13 03:29:22;;;;;;;5.40;3.47;;;19.50;99.90;;;;;;5081792;28;20474;-60
2023/07/13 03:31:49;;;;;;;3.30;2.80;;;19.00;99.90;;;;;;5081261;28;20442;-60
2023/07/13 03:34:16;;;;;;;6.03;3.77;;;;;;;;;;5081947;28;20474;-61
2023/07/13 03:36:43;;;;;;;3.30;2.83;;;;;;;;;;5081910;28;20470;-60
2023/07/13 03:39:11;;;;;;;5.53;3.00;;;19.20;99.90;;;;;;5081504;28;20561;-59
2023/07/13 03:41:38;;;;;;;5.73;3.83;;;19.00;99.90;;;;;;5081779;28;20446;-59
2023/07/13 03:44:05;;;;;;;4.33;3.10;;;19.10;99.90;;;;;;5081482;28;20574;-60
2023/07/13 03:46:33;;;;;;;3.60;3.03;;;;;;;;;;5078653;28;20573;-61
2023/07/13 03:49:00;;;;;;;4.00;3.23;;;19.20;99.90;;;;;;5078318;28;20446;-60
2023/07/13 03:51:27;;;;;;;5.57;4.93;;;;;;;;;;5077700;28;20438;-61
2023/07/13 03:53:54;;;;;;;4.77;3.10;;;;;;;;;;5077961;28;20477;-61
2023/07/13 03:56:23;;;;;;;4.60;3.70;;;19.00;99.90;;;;;;5078044;28;20858;-61
2023/07/13 03:58:51;;;;;;;6.63;3.50;;;19.10;99.90;;;;;;5078485;28;21010;-58
2023/07/13 04:01:19;;;;;;;6.43;2.80;;;19.20;99.90;;;;;;5077461;28;20474;-57
2023/07/13 04:03:47;;;;;;;5.27;3.23;;;19.30;99.90;;;;;;5078031;28;20572;-59
2023/07/13 04:06:20;;;;;;;7.03;3.10;;;19.80;99.90;;;;;;5077799;28;20446;-62
2023/07/13 04:08:49;;;;;;;3.13;2.63;;;19.30;99.90;;;;;;5077752;28;20431;-60
2023/07/13 04:11:17;;;;;;;4.23;3.10;;;19.30;99.90;;;;;;5077771;28;20454;-61
2023/07/13 04:13:45;;;;;;;4.80;2.80;;;19.00;99.90;;;;;;5077714;28;20466;-59
2023/07/13 04:16:12;;;;;;;3.83;2.57;;;;;;;;;;5078445;28;20450;-61
2023/07/13 04:18:40;;;;;;;3.57;2.77;;;;;;;;;;5077564;28;20450;-59
2023/07/13 04:21:08;;;;;;;4.07;3.27;;;19.40;99.90;;;;;;5081390;28;20474;-61
2023/07/13 04:23:35;;;;;;;9.00;2.80;;;;;;;;;;5081121;28;20482;-59
2023/07/13 04:26:02;;;;;;;7.30;2.70;;;;;;;;;;5082822;28;20551;-62
2023/07/13 04:28:30;;;;;;;6.77;3.17;;;;;;;;;;5084547;28;20501;-61
2023/07/13 04:30:58;;;;;;;2.83;2.50;;;19.80;99.90;;;;;;5084239;28;20469;-61
2023/07/13 04:33:25;;;;;;;6.63;3.00;;;;;;;;;;5084312;28;20878;-59
2023/07/13 04:35:56;;;;;;;3.47;2.83;;;19.50;99.90;;;;;;5084638;28;20537;-60
2023/07/13 04:38:24;;;;;;;4.90;2.93;;;19.70;99.90;;;;;;5084725;28;20457;-61
2023/07/13 04:40:51;;;;;;;3.37;3.07;;;;;;;;;;5084891;28;20473;-60
2023/07/13 04:43:18;;;;;;;2.67;2.20;;;19.70;99.90;;;;;;5084125;28;20537;-61
2023/07/13 04:45:45;;;;;;;4.13;3.10;;;;;;;;;;5084414;28;20481;-60
2023/07/13 04:48:14;;;;;;;2.90;2.43;;;19.90;99.90;;;;;;5084174;28;20466;-60
2023/07/13 04:50:41;;;;;;;3.33;2.80;;;19.00;99.90;;;;;;5084683;28;20529;-60
2023/07/13 04:53:08;;;;;;;5.93;2.87;;;;;;;;;;5085112;28;20524;-62
2023/07/13 04:55:35;;;;;;;3.43;2.43;;;;;;;;;;5084849;28;20499;-61
2023/07/13 04:58:02;;;;;;;5.20;2.93;;;20.50;99.90;;;;;;5084752;28;20826;-60
2023/07/13 05:00:30;;;;;;;7.67;2.73;;;20.00;99.90;;;;;;5084411;28;20470;-60
2023/07/13 05:02:58;;;;;;;2.90;2.33;;;20.00;99.90;;;;;;5084655;28;20441;-59
2023/07/13 05:05:27;;;;;;;4.57;2.50;;;20.00;99.90;;;;;;5084531;28;20513;-60
2023/07/13 05:07:56;;;;;;;6.17;3.67;;;20.10;99.90;;;;;;5085246;28;20533;-61
2023/07/13 05:10:24;;;;;;;5.90;2.83;;;20.20;99.90;;;;;;5084117;28;20464;-60
2023/07/13 05:12:51;;;;;;;3.83;2.87;;;20.20;99.90;;;;;;5083495;28;20493;-60
2023/07/13 05:15:20;;;;;;;3.50;2.03;;;;;;;;;;5084340;28;20452;-60
2023/07/13 05:17:47;;;;;;;3.20;2.57;;;20.30;99.90;;;;;;5084565;28;20453;-60
2023/07/13 05:20:15;;;;;;;6.43;3.40;;;;;;;;;;5084136;28;20466;-60
2023/07/13 05:22:43;;;;;;;6.93;2.97;;;20.60;99.90;;;;;;5084045;28;20461;-61
2023/07/13 05:25:10;;;;;;;4.13;2.10;;;20.30;99.90;;;;;;5083702;28;20557;-60
2023/07/13 05:27:38;;;;;;;2.13;1.93;;;;;;;;;;5084313;28;20529;-61
2023/07/13 05:30:06;;;;;;;4.20;2.20;;;20.20;99.90;;;;;;5097301;28;20476;-58
2023/07/13 05:32:33;;;;;;;3.33;2.40;;;;;;;;;;5098094;28;20423;-60
2023/07/13 05:35:00;;;;;;;2.27;1.90;;;;;;;;;;5089084;28;20533;-62
2023/07/13 05:37:27;;;;;;;3.80;2.80;;;;;;;;;;5084717;28;20544;-56
2023/07/13 05:39:55;;;;;;;3.23;2.17;;;20.00;99.90;;;;;;5080887;28;20505;-60
2023/07/13 05:42:23;;;;;;;2.57;2.23;;;;;;;;;;5081022;28;20554;-60
2023/07/13 05:44:50;;;;;;;5.00;2.70;;;;;;;;;;5081346;28;20525;-62
2023/07/13 05:47:17;;;;;;;5.27;2.77;;;20.30;99.90;;;;;;5080722;28;20613;-60
2023/07/13 05:49:44;;;;;;;9.10;4.40;;;;;;;;;;5080824;28;20828;-59
2023/07/13 05:52:11;;;;;;;4.20;2.30;;;;;;;;;;5080814;28;20493;-58
2023/07/13 05:54:38;;;;;;;5.27;3.20;;;;;;;;;;5080556;28;20466;-60
2023/07/13 05:57:07;;;;;;;5.87;2.53;;;20.90;99.90;;;;;;5080633;28;20438;-60
2023/07/13 05:59:34;;;;;;;5.20;2.70;;;;;;;;;;5080827;28;20717;-62
2023/07/13 06:02:01;;;;;;;4.80;3.10;;;20.80;99.90;;;;;;5080322;28;20445;-59
2023/07/13 06:04:28;;;;;;;6.83;2.47;;;;;;;;;;5080190;28;20561;-62
2023/07/13 06:06:55;;;;;;;9.23;3.13;;;;;;;;;;5080056;28;20494;-60
2023/07/13 06:09:22;;;;;;;3.80;2.73;;;;;;;;;;5080567;28;20481;-59
2023/07/13 06:11:49;;;;;;;4.07;2.17;;;;;;;;;;5079579;28;20553;-62
2023/07/13 06:14:17;;;;;;;3.20;2.43;;;20.50;99.90;;;;;;5080277;28;20528;-60
2023/07/13 06:16:45;;;;;;;3.80;2.40;;;;;;;;;;5079942;28;20452;-60
2023/07/13 06:19:13;;;;;;;2.07;1.87;;;20.60;99.90;;;;;;5080229;28;20457;-59
2023/07/13 06:21:40;;;;;;;2.83;2.53;;;20.70;99.90;;;;;;5079856;28;20445;-62
2023/07/13 06:24:07;;;;;;;3.37;2.87;;;;;;;;;;5080195;28;20580;-60
2023/07/13 06:26:34;;;;;;;5.53;2.40;;;;;;;;;;5080319;28;20486;-62
2023/07/13 06:29:01;;;;;;;4.33;2.77;;;20.80;99.90;;;;;;5079836;28;20974;-60
2023/07/13 06:31:30;;;;;;;5.50;2.87;;;;;;;;;;5079586;28;20460;-60
2023/07/13 06:33:57;;;;;;;2.53;2.33;;;;;;;;;;5079781;28;20544;-62
2023/07/13 06:36:24;;;;;;;3.10;2.03;;;21.00;99.90;;;;;;5079423;28;20506;-63
2023/07/13 06:38:51;;;;;;;6.20;3.03;;;;;;;;;;5079744;28;20523;-62
2023/07/13 06:41:18;;;;;;;2.63;2.10;;;;;;;;;;5079360;28;20466;-62
2023/07/13 06:43:45;;;;;;;6.20;3.20;;;21.20;99.90;;;;;;5079656;28;20446;-62
2023/07/13 06:46:12;;;;;;;7.53;2.80;;;;;;;;;;5079279;28;20509;-61
2023/07/13 06:48:40;;;;;;;4.80;2.50;;;21.50;99.90;;;;;;5079428;28;20510;-62
2023/07/13 06:51:07;;;;;;;3.43;2.77;;;21.60;99.90;;;;;;5079581;28;20821;-61
2023/07/13 06:53:34;;;;;;;2.53;2.30;;;;;;;;;;5079257;28;20514;-62
2023/07/13 06:56:02;;;;;;;2.47;2.27;;;;;;;;;;5078559;28;20521;-61
2023/07/13 06:58:29;;;;;;;2.57;2.37;;;;;;;;;;5078913;28;20477;-62
2023/07/13 07:00:56;;;;;;;5.57;2.70;;;21.90;99.90;;;;;;5078853;28;20537;-60
2023/07/13 07:03:26;;;;;;;4.17;2.00;;;22.20;99.90;;;;;;5078505;28;20534;-60
2023/07/13 07:05:54;;;;;;;4.30;2.13;;;22.20;99.90;;;;;;5078595;28;20498;-57
2023/07/13 07:08:21;;;;;;;2.10;2.00;;;22.10;99.90;;;;;;5078371;28;20477;-57
2023/07/13 07:10:53;;;;;;;5.00;2.00;;;;;;;;;;5078116;28;20518;-62
2023/07/13 07:13:20;;;;;;;2.30;1.93;;;22.60;99.90;;;;;;5078112;28;20814;-61
2023/07/13 07:15:47;;;;;;;3.33;2.33;;;;;;;;;;5077585;28;20517;-61
2023/07/13 07:18:15;;;;;;;3.33;3.03;;;;;;;;;;5077803;28;20456;-60
2023/07/13 07:20:41;;;;;;;2.97;2.43;;;22.60;99.90;;;;;;5078252;28;20561;-56
2023/07/13 07:23:10;;;;;;;2.90;2.00;;;23.50;99.90;;;;;;5077991;28;20477;-61
2023/07/13 07:25:41;;;;;;;2.67;1.80;;;;;;;;;;5077553;28;20513;-60
2023/07/13 07:28:08;;;;;;;5.50;1.83;;;25.20;99.90;;;;;;5077747;28;20437;-61
2023/07/13 07:30:36;;;;;;;3.30;2.43;;;;;;;;;;5076752;28;20438;-60
2023/07/13 07:33:03;;;;;;;8.33;6.10;;;;;;;;;;5076173;28;20827;-62
2023/07/13 07:35:30;;;;;;;3.77;2.87;;;;;;;;;;5076321;28;20609;-63
2023/07/13 07:37:57;;;;;;;2.63;1.77;;;;;;;;;;5076479;28;20466;-60
2023/07/13 07:40:26;;;;;;;1.93;1.30;;;30.80;99.90;;;;;;5076396;28;20468;-60
2023/07/13 07:42:53;;;;;;;3.63;1.77;;;30.70;97.90;;;;;;5075678;28;20534;-62
2023/07/13 07:45:20;;;;;;;4.47;2.00;;;30.40;99.90;;;;;;5075756;28;20513;-62
2023/07/13 07:47:47;;;;;;;1.90;1.63;;;29.90;99.90;;;;;;5075661;28;20480;-59
2023/07/13 07:50:14;;;;;;;2.30;1.50;;;29.70;99.90;;;;;;5075379;28;20527;-60
2023/07/13 07:52:42;;;;;;;2.13;1.50;;;;;;;;;;5075994;28;20451;-60
2023/07/13 07:55:09;;;;;;;2.97;1.57;;;29.80;99.90;;;;;;5078446;28;20830;-63
2023/07/13 07:57:41;;;;;;;3.30;2.07;;;30.50;76.10;;;;;;5078010;28;20930;-63
2023/07/13 08:00:08;;;;;;;1.73;1.37;;;30.40;97.80;;;;;;5077732;28;20469;-63
2023/07/13 08:02:35;;;;;;;2.27;1.93;;;30.10;98.30;;;;;;5077404;28;20534;-60
2023/07/13 08:05:03;;;;;;;2.80;1.60;;;;;;;;;;5077932;28;20566;-61
2023/07/13 08:07:32;;;;;;;1.67;1.57;;;28.10;99.90;;;;;;5077942;28;20950;-62
2023/07/13 08:09:59;;;;;;;3.93;2.07;;;;;;;;;;5078302;28;20968;-61
2023/07/13 08:12:26;;;;;;;2.13;1.60;;;26.80;99.90;;;;;;5078031;28;20521;-58
2023/07/13 08:14:57;;;;;;;3.00;1.70;;;26.60;89.40;;;;;;5078231;28;20466;-60
2023/07/13 08:17:24;;;;;;;3.53;2.17;;;26.40;91.90;;;;;;5084371;28;20430;-59
2023/07/13 08:19:52;;;;;;;2.03;1.83;;;26.90;99.90;;;;;;5083795;28;20488;-60
2023/07/13 08:22:18;;;;;;;4.80;2.03;;;27.30;99.90;;;;;;5083700;28;20485;-60
2023/07/13 08:24:55;;;;;;;3.50;2.17;;;27.30;99.90;;;;;;5083379;28;20494;-62
2023/07/13 08:27:22;;;;;;;3.37;2.00;;;;;;;;;;5083535;28;20460;-63
2023/07/13 08:29:50;;;;;;;2.53;1.80;;;27.00;99.90;;;;;;5083178;28;20550;-59
2023/07/13 08:32:19;;;;;;;2.10;1.73;;;26.50;88.70;;;;;;5082728;28;20446;-62
2023/07/13 08:34:46;;;;;;;3.50;2.00;;;26.40;99.90;;;;;;5083502;28;20458;-62
2023/07/13 08:37:13;;;;;;;2.57;1.87;;;25.90;99.90;;;;;;5083875;28;20477;-58
2023/07/13 08:39:40;;;;;;;1.40;1.20;;;;;;;;;;5083378;28;20529;-61
2023/07/13 08:42:16;;;;;;;3.60;1.67;;;25.30;99.90;;;;;;5083943;28;20557;-61
2023/07/13 08:44:51;;;;;;;1.90;1.70;;;;;;;;;;5083051;28;20509;-60
2023/07/13 08:47:23;;;;;;;3.60;1.73;;;24.80;92.30;;;;;;5084606;28;20542;-60
2023/07/13 08:49:50;;;;;;;2.33;1.77;;;24.80;99.90;;;;;;5084441;28;20510;-61
2023/07/13 08:52:27;;;;;;;8.97;2.20;;;24.40;99.90;;;;;;5085916;28;20439;-55
2023/07/13 08:54:57;;;;;;;3.80;2.10;;;24.90;99.90;;;;;;5081895;28;20490;-61
2023/07/13 08:57:30;;;;;;;2.80;2.53;;;25.30;99.90;;;;;;5083029;28;20474;-60
2023/07/13 08:59:58;;;;;;;2.53;2.00;;;;;;;;;;5084649;28;20437;-60
2023/07/13 09:02:37;;;;;;;2.30;1.67;;;26.20;99.90;;;;;;5084623;28;20458;-59
2023/07/13 09:05:10;;;;;;;3.43;1.93;;;27.90;99.90;;;;;;5083505;28;20534;-61
2023/07/13 09:07:56;;;;;;;3.47;1.97;;;29.00;89.00;;;;;;5082363;28;20586;-61
2023/07/13 09:10:29;;;;;;;4.57;2.30;;;29.10;99.10;;;;;;5080392;28;20526;-58
2023/07/13 09:13:08;;;;;;;4.77;3.00;;;29.40;77.00;;;;;;5074792;28;20523;-60
2023/07/13 09:15:39;;;;;;;3.03;2.73;;;30.60;99.90;;;;;;5078899;28;20517;-59
2023/07/13 09:18:15;;;;;;;1.60;1.30;;;30.80;70.60;;;;;;5079063;28;20489;-61
2023/07/13 09:20:48;;;;;;;1.60;1.30;;;31.30;94.40;;;;;;5079012;28;20946;-61
2023/07/13 09:23:18;;;;;;;2.33;1.20;;;31.30;65.20;;;;;;5080573;28;20489;-58
2023/07/13 09:25:47;;;;;;;3.37;1.50;;;;;;;;;;5080805;28;20466;-60
2023/07/13 09:28:16;;;;;;;5.67;1.80;;;32.20;95.40;;;;;;5080583;28;20496;-58
2023/07/13 09:30:51;;;;;;;7.73;1.77;;;32.80;94.00;;;;;;5080657;28;20466;-60
2023/07/13 09:33:19;;;;;;;2.90;1.30;;;33.10;87.90;;;;;;5080328;28;20426;-60
2023/07/13 09:35:46;;;;;;;6.97;1.37;;;33.50;91.80;;;;;;5080651;28;20535;-60
2023/07/13 09:38:16;;;;;;;2.33;1.40;;;33.50;54.30;;;;;;5080178;28;20446;-60
2023/07/13 09:41:04;;;;;;;3.43;1.40;;;33.10;84.10;;;;;;5080459;28;20533;-59
2023/07/13 09:43:31;;;;;;;3.20;2.00;;;;;;;;;;5080057;28;20528;-61
2023/07/13 09:45:59;;;;;;;3.30;2.50;;;;;;;;;;5080155;28;20477;-59
2023/07/13 09:48:35;;;;;;;2.17;1.97;;;29.70;91.20;;;;;;5079742;28;20447;-61
2023/07/13 09:51:13;;;;;;;4.00;2.27;;;29.30;60.50;;;;;;5080618;28;20457;-62
2023/07/13 09:53:43;;;;;;;3.30;2.20;;;29.40;69.60;;;;;;5080849;28;20466;-61
2023/07/13 09:56:20;;;;;;;3.47;2.40;;;30.50;60.60;;;;;;5081479;28;20480;-60
2023/07/13 09:58:47;;;;;;;4.77;2.63;;;30.30;92.40;;;;;;5080323;28;20497;-58
2023/07/13 10:01:15;;;;;;;16.73;9.20;;;30.40;93.30;;;;;;5079827;28;20449;-60
2023/07/13 10:03:54;;;;;;;7.10;3.37;;;29.50;90.00;;;;;;5082040;28;20559;-58
2023/07/13 10:06:22;;;;;;;3.80;2.83;;;28.60;91.20;;;;;;5082569;28;20519;-58
2023/07/13 10:08:51;;;;;;;2.70;2.50;;;27.60;92.00;;;;;;5083063;28;20535;-61
2023/07/13 10:11:22;;;;;;;2.60;2.40;;;27.60;65.20;;;;;;5082834;28;20450;-60
2023/07/13 10:13:55;;;;;;;10.80;3.57;;;27.60;66.40;;;;;;5085109;28;20426;-62
2023/07/13 10:16:23;;;;;;;4.00;2.70;;;27.90;94.70;;;;;;5084291;28;20500;-61
2023/07/13 10:18:56;;;;;;;3.50;3.20;;;28.90;64.30;;;;;;5084475;28;20469;-62
2023/07/13 10:21:27;;;;;;;5.73;3.03;;;29.30;61.60;;;;;;5084899;28;20470;-60
2023/07/13 10:23:58;;;;;;;4.77;3.20;;;29.80;91.00;;;;;;5083621;28;20477;-60
2023/07/13 10:26:27;;;;;;;8.67;5.37;;;29.90;88.60;;;;;;5083248;28;20485;-61
2023/07/13 10:29:00;;;;;;;2.67;2.47;;;30.60;93.20;;;;;;5083786;28;20529;-58
2023/07/13 10:31:27;;;;;;;2.93;2.73;;;30.40;89.20;;;;;;5082829;28;20478;-61
2023/07/13 10:33:55;;;;;;;8.50;3.67;;;30.20;58.60;;;;;;5081786;28;20470;-61
2023/07/13 10:36:31;;;;;;;3.03;2.40;;;30.50;67.40;;;;;;5082633;28;20507;-58
2023/07/13 10:39:01;;;;;;;2.73;2.47;;;30.00;58.80;;;;;;5082400;28;20470;-59
2023/07/13 10:41:31;;;;;;;2.40;2.20;;;30.10;90.70;;;;;;5082768;28;20438;-60
2023/07/13 10:43:59;;;;;;;4.73;3.67;;;29.60;90.30;;;;;;5081431;28;20446;-60
2023/07/13 10:46:28;;;;;;;3.77;2.70;;;28.80;90.80;;;;;;5082274;28;20492;-61
2023/07/13 10:49:02;;;;;;;2.93;2.50;;;28.70;91.70;;;;;;5081882;28;20446;-60
2023/07/13 10:51:30;;;;;;;4.77;2.47;;;27.70;62.50;;;;;;5082580;28;20990;-60
2023/07/13 10:54:17;;;;;;;2.90;2.47;;;27.30;64.00;;;;;;5083948;28;20474;-60
2023/07/13 10:56:45;;;;;;;3.30;2.47;;;26.90;95.20;;;;;;5084000;28;20462;-62
2023/07/13 10:59:19;;;;;;;6.00;4.23;;;26.90;64.60;;;;;;5084652;28;20504;-60
2023/07/13 11:01:56;;;;;;;9.10;2.87;;;27.50;60.50;;;;;;5085791;28;20451;-64
2023/07/13 11:04:25;;;;;;;2.90;2.60;;;27.80;92.40;;;;;;5091895;28;20422;-63
2023/07/13 11:06:57;;;;;;;4.60;2.30;;;28.10;92.20;;;;;;5084242;28;20522;-61
2023/07/13 11:09:37;;;;;;;3.53;2.70;;;28.10;61.10;;;;;;5084589;28;20454;-60
2023/07/13 11:12:10;;;;;;;5.30;2.80;;;28.10;93.60;;;;;;5084136;28;20464;-61
2023/07/13 11:14:39;;;;;;;4.37;3.20;;;28.50;92.80;;;;;;5084818;28;20946;-59
2023/07/13 11:17:26;;;;;;;4.60;3.13;;;28.70;92.60;;;;;;5083860;28;20438;-60
2023/07/13 11:20:05;;;;;;;2.07;1.87;;;28.30;54.50;;;;;;5083388;28;20509;-59
2023/07/13 11:22:44;;;;;;;3.13;2.00;;;28.30;54.50;;;;;;5083989;28;20437;-61
2023/07/13 11:25:29;;;;;;;5.70;2.30;;;28.50;91.60;;;;;;5083867;28;20877;-55
2023/07/13 11:28:14;;;;;;;2.60;2.40;;;28.60;91.00;;;;;;5083955;28;20441;-60
2023/07/13 11:30:44;;;;;;;3.13;2.53;;;28.50;90.40;;;;;;5084673;28;20477;-61
2023/07/13 11:33:23;;;;;;;3.10;2.60;;;28.50;58.90;;;;;;5083620;28;20446;-61
2023/07/13 11:36:03;;;;;;;4.40;2.27;;;28.80;59.60;;;;;;5082258;28;20423;-57
2023/07/13 11:38:36;;;;;;;3.03;2.50;;;28.50;59.10;;;;;;5082728;28;20537;-61
2023/07/13 11:41:07;;;;;;;2.43;2.23;;;28.30;90.30;;;;;;5083029;28;20481;-60
2023/07/13 11:43:34;;;;;;;4.50;2.40;;;;;;;;;;5083293;28;20423;-61
2023/07/13 11:46:14;;;;;;;5.20;2.63;;;28.20;90.80;;;;;;5082687;28;20980;-59
2023/07/13 11:48:42;;;;;;;3.70;2.53;;;28.60;67.50;;;;;;5082615;28;20883;-58
2023/07/13 11:51:20;;;;;;;4.40;2.80;;;28.40;61.40;;;;;;5082489;28;20465;-60
2023/07/13 11:53:49;;;;;;;3.43;2.93;;;28.00;95.30;;;;;;5082067;28;20466;-57
2023/07/13 11:56:17;;;;;;;3.83;2.47;;;;;;;;;;5086412;28;20438;-59
2023/07/13 11:58:49;;;;;;;9.80;2.17;;;27.70;91.30;;;;;;5082178;28;20482;-57
2023/07/13 12:01:20;;;;;;;5.70;2.33;;;27.80;93.30;;;;;;5076991;28;20454;-60
2023/07/13 12:03:48;;;;;;;5.50;3.47;;;27.40;95.00;;;;;;5075925;28;20522;-60
2023/07/13 12:06:36;;;;;;;5.93;3.00;;;27.60;95.30;;;;;;5076179;28;20522;-59
2023/07/13 12:09:12;;;;;;;5.00;3.80;;;27.60;61.60;;;;;;5078566;28;20439;-61
2023/07/13 12:11:42;;;;;;;2.10;1.93;;;27.50;94.70;;;;;;5078022;28;20496;-61
2023/07/13 12:14:15;;;;;;;3.00;2.70;;;27.60;61.60;;;;;;5078111;28;20512;-61
2023/07/13 12:16:43;;;;;;;2.47;2.10;;;;;;;;;;5078251;28;20477;-61
2023/07/13 12:19:19;;;;;;;4.30;2.57;;;27.40;91.70;;;;;;5079025;28;20484;-60
2023/07/13 12:21:47;;;;;;;2.27;2.03;;;27.40;95.00;;;;;;5082912;28;20460;-61
2023/07/13 12:24:16;;;;;;;2.93;2.43;;;27.30;91.90;;;;;;5082466;28;20512;-62
2023/07/13 12:26:45;;;;;;;4.80;3.00;;;;;;;;;;5088017;28;20519;-61
2023/07/13 12:29:17;;;;;;;5.93;3.07;;;27.00;88.50;;;;;;5086191;28;20527;-59
2023/07/13 12:31:46;;;;;;;4.50;2.20;;;26.70;87.50;;;;;;5087984;28;20423;-61
2023/07/13 12:34:15;;;;;;;6.40;4.47;;;27.20;58.10;;;;;;5082884;28;20492;-60
2023/07/13 12:36:49;;;;;;;6.67;2.13;;;27.30;64.30;;;;;;5083121;28;20478;-61
2023/07/13 12:39:19;;;;;;;6.53;4.37;;;27.10;92.30;;;;;;5084098;28;20468;-59
2023/07/13 12:41:49;;;;;;;3.57;3.00;;;;;;;;;;5083520;28;20510;-60
2023/07/13 12:44:21;;;;;;;2.90;2.60;;;27.40;59.50;;;;;;5084548;28;20450;-60
2023/07/13 12:46:57;;;;;;;5.20;2.60;;;27.00;91.10;;;;;;5083705;28;20458;-61
2023/07/13 12:49:28;;;;;;;6.70;4.43;;;26.90;91.70;;;;;;5088677;28;20430;-61
2023/07/13 12:52:00;;;;;;;3.33;2.60;;;27.30;63.00;;;;;;5087943;28;20500;-59
2023/07/13 12:54:29;;;;;;;5.87;2.80;;;26.50;95.50;;;;;;5078101;28;20441;-60
2023/07/13 12:56:58;;;;;;;2.83;1.83;;;26.30;95.30;;;;;;5077921;28;21004;-60
2023/07/13 12:59:30;;;;;;;4.70;2.60;;;26.70;61.40;;;;;;5079923;28;20472;-60
2023/07/13 13:01:57;;;;;;;2.67;2.47;;;;;;;;;;5081270;28;20427;-60
2023/07/13 13:04:24;;;;;;;3.73;2.00;;;;;;;;;;5082221;28;20885;-62
2023/07/13 13:07:04;;;;;;;2.53;2.20;;;26.70;92.10;;;;;;5081627;28;20485;-61
2023/07/13 13:09:31;;;;;;;3.13;1.60;;;27.30;95.60;;;;;;5082237;28;20949;-60
2023/07/13 13:11:58;;;;;;;4.90;1.97;;;26.90;91.90;;;;;;5081004;28;20465;-61
2023/07/13 13:14:25;;;;;;;3.80;2.20;;;;;;;;;;5081981;28;20524;-60
2023/07/13 13:16:54;;;;;;;6.80;1.80;;;26.80;95.80;;;;;;5081798;28;20470;-61
2023/07/13 13:19:26;;;;;;;5.00;2.27;;;26.80;63.40;;;;;;5081505;28;20442;-60
2023/07/13 13:21:56;;;;;;;2.80;2.13;;;26.70;63.60;;;;;;5081678;28;20434;-62
2023/07/13 13:24:27;;;;;;;2.90;2.23;;;26.70;64.20;;;;;;5081656;28;20466;-61